createdAt,value
2019-02-07T00:01:21.473Z,96235.74
2019-02-07T00:04:09.476Z,96234.50
2019-02-07T00:06:57.426Z,96237.44
2019-02-07T00:09:45.510Z,96229.42
2019-02-07T00:12:33.681Z,96227.16
2019-02-07T00:15:22.183Z,96222.54
2019-02-07T00:18:10.430Z,96226.02
2019-02-07T00:20:57.956Z,96219.56
2019-02-07T00:23:46.137Z,96213.23
2019-02-07T00:26:34.402Z,96215.14
2019-02-07T00:29:22.722Z,96229.17
2019-02-07T00:32:10.665Z,96217.22
2019-02-07T00:34:58.690Z,96214.56
2019-02-07T00:37:46.956Z,96206.34
2019-02-07T00:40:35.064Z,96208.03
2019-02-07T00:43:22.583Z,96205.19
2019-02-07T00:46:10.419Z,96196.54
2019-02-07T00:48:58.618Z,96191.39
2019-02-07T00:51:47.143Z,96191.20
2019-02-07T00:54:35.068Z,96183.42
2019-02-07T00:57:23.208Z,96183.25
2019-02-07T01:00:14.934Z,96176.02
2019-02-07T01:03:03.071Z,96173.14
2019-02-07T01:05:51.425Z,96170.20
2019-02-07T01:08:38.911Z,96174.47
2019-02-07T01:11:26.805Z,96174.25
2019-02-07T01:14:14.769Z,96160.98
2019-02-07T01:17:03.173Z,96163.17
2019-02-07T01:19:51.338Z,96160.13
2019-02-07T01:22:39.565Z,96157.63
2019-02-07T01:25:27.452Z,96156.30
2019-02-07T01:28:15.316Z,96150.52
2019-02-07T01:31:03.297Z,96158.87
2019-02-07T01:33:51.172Z,96163.06
2019-02-07T01:36:39.027Z,96162.03
2019-02-07T01:39:27.091Z,96150.43
2019-02-07T01:42:15.240Z,96158.92
2019-02-07T01:45:12.846Z,96150.21
2019-02-07T01:47:53.826Z,96152.39
2019-02-07T01:50:41.692Z,96141.84
2019-02-07T01:53:30.086Z,96137.23
2019-02-07T01:56:18.188Z,96128.36
2019-02-07T01:59:06.334Z,96132.28
2019-02-07T02:01:54.747Z,96128.39
2019-02-07T02:04:43.014Z,96125.33
2019-02-07T02:07:30.652Z,96117.88
2019-02-07T02:10:23.851Z,96118.64
2019-02-07T02:13:11.782Z,96123.91
2019-02-07T02:15:59.877Z,96123.13
2019-02-07T02:18:47.525Z,96123.41
2019-02-07T02:21:35.452Z,96120.41
2019-02-07T02:24:23.596Z,96111.80
2019-02-07T02:27:11.872Z,96108.19
2019-02-07T02:30:00.322Z,96107.22
2019-02-07T02:32:48.248Z,96110.02
2019-02-07T02:35:36.157Z,96099.59
2019-02-07T02:38:23.814Z,96100.53
2019-02-07T02:41:11.833Z,96098.17
2019-02-07T02:43:59.768Z,96101.58
2019-02-07T02:46:47.887Z,96093.80
2019-02-07T02:49:35.726Z,96084.72
2019-02-07T02:52:23.627Z,96085.41
2019-02-07T02:55:13.961Z,96084.27
2019-02-07T02:58:01.909Z,96073.96
2019-02-07T03:01:27.228Z,96084.02
2019-02-07T03:04:37.252Z,96076.62
2019-02-07T03:07:44.244Z,96068.95
2019-02-07T03:10:57.224Z,96068.14
2019-02-07T03:14:11.488Z,96060.20
2019-02-07T03:17:16.572Z,96065.31
2019-02-07T03:20:21.135Z,96058.88
2019-02-07T03:23:37.396Z,96059.32
2019-02-07T03:26:35.407Z,96055.73
2019-02-07T03:30:00.716Z,96053.00
2019-02-07T03:33:13.738Z,96040.94
2019-02-07T03:36:20.792Z,96043.53
2019-02-07T03:39:30.942Z,96049.55
2019-02-07T03:42:38.720Z,96048.59
2019-02-07T03:46:02.374Z,96049.55
2019-02-07T03:49:06.501Z,96040.38
2019-02-07T03:52:19.289Z,96049.45
2019-02-07T03:55:24.767Z,96042.23
2019-02-07T03:58:31.433Z,96034.41
2019-02-07T04:01:56.255Z,96046.41
2019-02-07T04:05:00.475Z,96034.55
2019-02-07T04:08:05.832Z,96036.95
2019-02-07T04:11:27.730Z,96029.99
2019-02-07T04:14:34.904Z,96033.84
2019-02-07T04:17:38.441Z,96025.48
2019-02-07T04:20:44.518Z,96028.66
2019-02-07T04:23:50.967Z,96023.23
2019-02-07T04:26:54.400Z,96022.72
2019-02-07T04:30:00.402Z,96017.84
2019-02-07T04:33:11.423Z,96022.44
2019-02-07T04:36:10.621Z,96024.28
2019-02-07T04:39:13.340Z,96024.78
2019-02-07T04:42:18.147Z,96029.36
2019-02-07T04:45:23.872Z,96020.35
2019-02-07T04:48:46.053Z,96021.59
2019-02-07T04:52:05.531Z,96021.62
2019-02-07T04:55:10.805Z,96025.32
2019-02-07T04:58:20.107Z,96025.41
2019-02-07T05:01:26.910Z,96021.17
2019-02-07T05:04:36.909Z,96026.55
2019-02-07T05:07:41.984Z,96031.44
2019-02-07T05:10:58.084Z,96035.89
2019-02-07T05:14:10.979Z,96029.65
2019-02-07T05:17:25.108Z,96024.72
2019-02-07T05:20:24.376Z,96022.47
2019-02-07T05:23:30.692Z,96026.17
2019-02-07T05:26:45.566Z,96021.92
2019-02-07T05:29:52.777Z,96019.77
2019-02-07T05:32:58.221Z,96022.11
2019-02-07T05:36:04.027Z,96018.08
2019-02-07T05:39:07.149Z,96019.94
2019-02-07T05:42:05.703Z,96007.70
2019-02-07T05:45:06.988Z,96015.27
2019-02-07T05:48:19.813Z,96005.52
2019-02-07T05:51:29.749Z,96006.78
2019-02-07T05:54:41.597Z,96015.81
2019-02-07T05:57:51.641Z,96010.98
2019-02-07T06:00:57.175Z,96018.73
2019-02-07T06:04:02.927Z,96012.53
2019-02-07T06:07:22.185Z,96012.08
2019-02-07T06:10:30.070Z,96008.20
2019-02-07T06:13:35.414Z,96011.12
2019-02-07T06:16:48.335Z,96010.27
2019-02-07T06:19:58.651Z,96013.97
2019-02-07T06:23:12.872Z,96008.78
2019-02-07T06:26:31.666Z,96004.73
2019-02-07T06:29:41.158Z,96008.13
2019-02-07T06:32:48.097Z,96006.42
2019-02-07T06:36:01.216Z,96000.90
2019-02-07T06:39:16.560Z,96013.30
2019-02-07T06:42:35.738Z,96017.88
2019-02-07T06:45:51.982Z,96015.39
2019-02-07T06:48:57.237Z,96014.94
2019-02-07T06:52:13.815Z,95993.59
2019-02-07T06:55:19.779Z,96008.91
2019-02-07T06:58:32.576Z,96009.06
2019-02-07T07:01:38.360Z,96003.56
2019-02-07T07:04:36.316Z,96005.20
2019-02-07T07:07:49.384Z,96011.25
2019-02-07T07:11:11.076Z,96010.33
2019-02-07T07:14:16.863Z,96011.59
2019-02-07T07:17:27.160Z,96007.22
2019-02-07T07:20:48.965Z,96007.86
2019-02-07T07:23:51.503Z,96000.44
2019-02-07T07:26:50.603Z,96006.98
2019-02-07T07:30:03.663Z,96004.00
2019-02-07T07:33:14.995Z,96004.47
2019-02-07T07:36:24.972Z,95995.99
2019-02-07T07:39:30.450Z,95990.63
2019-02-07T07:42:36.118Z,95995.88
2019-02-07T07:45:49.686Z,95997.62
2019-02-07T07:49:02.668Z,95991.04
2019-02-07T07:52:18.422Z,95990.31
2019-02-07T07:55:12.802Z,95985.55
2019-02-07T07:58:19.269Z,95984.70
2019-02-07T08:01:25.249Z,95985.65
2019-02-07T08:04:40.803Z,95985.30
2019-02-07T08:07:46.261Z,95987.45
2019-02-07T08:10:44.949Z,95982.53
2019-02-07T08:13:51.860Z,95982.13
2019-02-07T08:17:04.653Z,95976.98
2019-02-07T08:20:20.068Z,95984.86
2019-02-07T08:23:13.911Z,95975.86
2019-02-07T08:26:19.598Z,95975.66
2019-02-07T08:29:23.106Z,95970.94
2019-02-07T08:32:45.220Z,95970.74
2019-02-07T08:35:50.761Z,95975.86
2019-02-07T08:38:49.848Z,95966.06
2019-02-07T08:42:05.626Z,95974.61
2019-02-07T08:45:10.886Z,95971.08
2019-02-07T08:48:16.528Z,95972.96
2019-02-07T08:51:12.926Z,95964.23
2019-02-07T08:54:26.047Z,95956.73
2019-02-07T08:57:21.887Z,95958.97
2019-02-07T09:00:31.683Z,95959.77
2019-02-07T09:03:47.205Z,95959.52
2019-02-07T09:06:53.116Z,95945.97
2019-02-07T09:10:12.683Z,95947.33
2019-02-07T09:13:17.273Z,95946.81
2019-02-07T09:16:27.322Z,95944.68
2019-02-07T09:19:33.068Z,95945.52
2019-02-07T09:22:40.051Z,95949.53
2019-02-07T09:25:58.942Z,95934.05
2019-02-07T09:29:15.586Z,95934.85
2019-02-07T09:32:21.429Z,95931.39
2019-02-07T09:35:34.269Z,95932.72
2019-02-07T09:38:40.231Z,95926.56
2019-02-07T09:41:43.281Z,95913.67
2019-02-07T09:45:05.396Z,95922.20
2019-02-07T09:48:21.147Z,95917.69
2019-02-07T09:51:27.028Z,95916.63
2019-02-07T09:54:43.124Z,95913.67
2019-02-07T09:57:48.688Z,95910.94
2019-02-07T10:00:55.510Z,95912.11
2019-02-07T10:04:08.270Z,95905.86
2019-02-07T10:07:18.015Z,95908.43
2019-02-07T10:10:27.207Z,95907.91
2019-02-07T10:13:40.007Z,95908.00
2019-02-07T10:16:55.389Z,95912.18
2019-02-07T10:20:01.371Z,95918.92
2019-02-07T10:23:26.762Z,95914.08
2019-02-07T10:26:40.254Z,95915.99
2019-02-07T10:29:46.782Z,95914.89
2019-02-07T10:32:49.441Z,95922.53
2019-02-07T10:36:02.127Z,95909.65
2019-02-07T10:39:09.384Z,95907.41
2019-02-07T10:42:04.143Z,95912.18
2019-02-07T10:45:02.163Z,95902.14
2019-02-07T10:48:08.298Z,95906.91
2019-02-07T10:51:14.643Z,95893.50
2019-02-07T10:54:30.784Z,95887.41
2019-02-07T10:57:37.478Z,95895.26
2019-02-07T11:00:43.288Z,95893.90
2019-02-07T11:03:59.716Z,95905.28
2019-02-07T11:07:05.018Z,95903.94
2019-02-07T11:10:20.939Z,95895.37
2019-02-07T11:13:33.907Z,95897.20
2019-02-07T11:16:43.966Z,95902.42
2019-02-07T11:19:53.995Z,95904.02
2019-02-07T11:22:55.754Z,95894.20
2019-02-07T11:26:02.750Z,95895.22
2019-02-07T11:29:09.830Z,95896.77
2019-02-07T11:32:15.896Z,95898.84
2019-02-07T11:35:21.782Z,95890.86
2019-02-07T11:38:29.822Z,95884.56
2019-02-07T11:41:39.466Z,95889.69
2019-02-07T11:44:50.792Z,95877.50
2019-02-07T11:48:08.607Z,95878.86
2019-02-07T11:51:05.235Z,95875.27
2019-02-07T11:54:19.729Z,95876.42
2019-02-07T11:57:26.456Z,95870.59
2019-02-07T12:00:36.953Z,95878.27
2019-02-07T12:03:35.966Z,95872.27
2019-02-07T12:06:52.016Z,95878.28
2019-02-07T12:10:02.310Z,95882.80
2019-02-07T12:13:08.228Z,95873.67
2019-02-07T12:16:14.258Z,95875.09
2019-02-07T12:19:18.033Z,95865.95
2019-02-07T12:22:33.654Z,95862.60
2019-02-07T12:25:43.237Z,95861.57
2019-02-07T12:28:55.883Z,95861.27
2019-02-07T12:32:05.648Z,95855.75
2019-02-07T12:35:12.736Z,95850.97
2019-02-07T12:38:22.621Z,95856.30
2019-02-07T12:41:29.331Z,95850.03
2019-02-07T12:44:34.882Z,95847.42
2019-02-07T12:47:57.267Z,95842.45
2019-02-07T12:50:56.365Z,95837.28
2019-02-07T12:54:18.079Z,95837.19
2019-02-07T12:57:23.813Z,95837.09
2019-02-07T13:00:31.713Z,95836.90
2019-02-07T13:03:34.039Z,95849.45
2019-02-07T13:06:49.923Z,95838.81
2019-02-07T13:09:55.758Z,95838.25
2019-02-07T13:13:01.532Z,95843.58
2019-02-07T13:16:03.820Z,95838.51
2019-02-07T13:19:10.455Z,95847.22
2019-02-07T13:22:17.651Z,95845.92
2019-02-07T13:25:31.034Z,95842.41
2019-02-07T13:28:35.029Z,95853.67
2019-02-07T13:31:32.590Z,95852.59
2019-02-07T13:34:42.938Z,95837.88
2019-02-07T13:37:46.075Z,95846.89
2019-02-07T13:40:51.748Z,95847.14
2019-02-07T13:44:05.077Z,95836.56
2019-02-07T13:47:10.834Z,95845.14
2019-02-07T13:50:07.920Z,95844.88
2019-02-07T13:53:11.267Z,95836.83
2019-02-07T13:56:32.555Z,95833.66
2019-02-07T13:59:39.155Z,95844.50
2019-02-07T14:03:05.075Z,95838.77
2019-02-07T14:06:17.750Z,95838.42
2019-02-07T14:09:19.812Z,95850.25
2019-02-07T14:12:26.225Z,95846.34
2019-02-07T14:15:31.925Z,95851.09
2019-02-07T14:18:28.506Z,95850.84
2019-02-07T14:21:38.527Z,95865.07
2019-02-07T14:24:40.780Z,95875.24
2019-02-07T14:27:47.289Z,95874.46
2019-02-07T14:31:09.657Z,95874.60
2019-02-07T14:34:15.355Z,95873.33
2019-02-07T14:37:38.087Z,95871.76
2019-02-07T14:40:51.088Z,95875.26
2019-02-07T14:44:07.453Z,95870.11
2019-02-07T14:46:55.482Z,95879.81
2019-02-07T14:49:43.137Z,95886.60
2019-02-07T14:52:31.304Z,95883.10
2019-02-07T14:55:19.304Z,95888.11
2019-02-07T14:58:07.534Z,95886.51
2019-02-07T15:00:55.616Z,95888.20
2019-02-07T15:03:43.750Z,95887.50
2019-02-07T15:06:31.971Z,95902.25
2019-02-07T15:09:21.223Z,95899.74
2019-02-07T15:12:09.138Z,95895.86
2019-02-07T15:14:57.297Z,95893.27
2019-02-07T15:17:45.400Z,95894.39
2019-02-07T15:20:33.404Z,95894.98
2019-02-07T15:23:21.886Z,95893.09
2019-02-07T15:26:09.828Z,95889.08
2019-02-07T15:28:58.003Z,95902.52
2019-02-07T15:31:45.817Z,95896.39
2019-02-07T15:34:34.025Z,95887.53
2019-02-07T15:37:22.285Z,95884.78
2019-02-07T15:40:14.085Z,95894.98
2019-02-07T15:43:01.885Z,95889.81
2019-02-07T15:45:49.585Z,95903.72
2019-02-07T15:48:37.909Z,95902.48
2019-02-07T15:51:25.852Z,95900.46
2019-02-07T15:54:13.808Z,95899.39
2019-02-07T15:57:02.006Z,95899.63
2019-02-07T15:59:55.935Z,95899.88
2019-02-07T16:02:52.218Z,95898.02
2019-02-07T16:05:40.324Z,95891.61
2019-02-07T16:08:28.271Z,95892.16
2019-02-07T16:11:16.254Z,95898.63
2019-02-07T16:14:04.462Z,95897.84
2019-02-07T16:16:52.543Z,95909.66
2019-02-07T16:19:40.505Z,95900.06
2019-02-07T16:22:28.683Z,95898.91
2019-02-07T16:25:16.789Z,95898.31
2019-02-07T16:28:05.562Z,95896.44
2019-02-07T16:30:53.599Z,95904.58
2019-02-07T16:33:41.730Z,95897.55
2019-02-07T16:36:29.808Z,95890.82
2019-02-07T16:39:18.226Z,95889.08
2019-02-07T16:42:06.732Z,95890.34
2019-02-07T16:44:55.819Z,95888.19
2019-02-07T16:47:44.171Z,95892.58
2019-02-07T16:50:31.999Z,95899.20
2019-02-07T16:53:19.837Z,95896.78
2019-02-07T16:56:08.191Z,95897.84
2019-02-07T16:58:56.554Z,95904.25
2019-02-07T17:01:44.708Z,95910.38
2019-02-07T17:04:32.808Z,95900.70
2019-02-07T17:07:20.710Z,95899.96
2019-02-07T17:10:11.274Z,95909.89
2019-02-07T17:12:59.166Z,95920.56
2019-02-07T17:15:47.425Z,95919.46
2019-02-07T17:18:35.029Z,95916.25
2019-02-07T17:21:23.299Z,95925.09
2019-02-07T17:24:11.398Z,95935.59
2019-02-07T17:26:59.368Z,95936.02
2019-02-07T17:29:47.513Z,95947.05
2019-02-07T17:32:35.694Z,95948.37
2019-02-07T17:35:23.676Z,95955.38
2019-02-07T17:38:11.508Z,95965.03
2019-02-07T17:40:59.355Z,95973.88
2019-02-07T17:43:47.580Z,95977.48
2019-02-07T17:46:35.702Z,95985.21
2019-02-07T17:49:24.175Z,95999.88
2019-02-07T17:52:11.733Z,95982.73
2019-02-07T17:55:00.007Z,95986.77
2019-02-07T17:57:47.791Z,95991.78
2019-02-07T18:00:43.341Z,95983.80
2019-02-07T18:03:31.723Z,95996.94
2019-02-07T18:06:20.100Z,96003.70
2019-02-07T18:09:10.105Z,95999.41
2019-02-07T18:11:58.315Z,95991.69
2019-02-07T18:14:46.214Z,95993.23
2019-02-07T18:17:34.249Z,95998.86
2019-02-07T18:20:22.554Z,96002.67
2019-02-07T18:23:10.756Z,95994.88
2019-02-07T18:25:58.603Z,95992.98
2019-02-07T18:28:46.662Z,95992.15
2019-02-07T18:31:34.462Z,95991.84
2019-02-07T18:34:22.285Z,95989.92
2019-02-07T18:37:10.423Z,96004.11
2019-02-07T18:39:58.670Z,96001.67
2019-02-07T18:42:46.509Z,96007.86
2019-02-07T18:45:34.400Z,96016.67
2019-02-07T18:48:22.408Z,96012.13
2019-02-07T18:51:10.670Z,96024.25
2019-02-07T18:53:58.289Z,96018.10
2019-02-07T18:56:45.828Z,96020.85
2019-02-07T18:59:33.907Z,96026.21
2019-02-07T19:02:21.591Z,96032.63
2019-02-07T19:05:10.645Z,96021.65
2019-02-07T19:07:58.501Z,96031.56
2019-02-07T19:10:46.171Z,96035.02
2019-02-07T19:13:34.085Z,96025.08
2019-02-07T19:16:22.159Z,96035.80
2019-02-07T19:19:09.746Z,96045.92
2019-02-07T19:21:57.926Z,96056.97
2019-02-07T19:24:45.860Z,96056.19
2019-02-07T19:27:33.881Z,96060.17
2019-02-07T19:30:24.684Z,96056.05
2019-02-07T19:33:12.641Z,96056.84
2019-02-07T19:36:00.612Z,96050.20
2019-02-07T19:38:48.923Z,96049.66
2019-02-07T19:41:36.790Z,96056.03
2019-02-07T19:44:24.962Z,96052.30
2019-02-07T19:47:13.174Z,96066.82
2019-02-07T19:50:01.214Z,96075.94
2019-02-07T19:52:49.830Z,96078.91
2019-02-07T19:55:37.874Z,96079.38
2019-02-07T19:58:25.989Z,96080.72
2019-02-07T20:01:14.241Z,96084.52
2019-02-07T20:04:02.111Z,96095.55
2019-02-07T20:06:49.747Z,96101.13
2019-02-07T20:09:37.870Z,96099.05
2019-02-07T20:12:25.796Z,96109.73
2019-02-07T20:15:20.414Z,96112.73
2019-02-07T20:18:09.524Z,96117.31
2019-02-07T20:20:57.436Z,96120.83
2019-02-07T20:23:45.172Z,96123.52
2019-02-07T20:26:33.456Z,96121.13
2019-02-07T20:29:21.624Z,96128.87
2019-02-07T20:32:10.016Z,96134.23
2019-02-07T20:34:57.872Z,96132.31
2019-02-07T20:37:45.848Z,96146.58
2019-02-07T20:40:33.845Z,96149.50
2019-02-07T20:43:22.399Z,96151.65
2019-02-07T20:46:10.133Z,96141.50
2019-02-07T20:48:57.925Z,96144.43
2019-02-07T20:51:45.717Z,96150.34
2019-02-07T20:54:33.551Z,96153.27
2019-02-07T20:57:21.468Z,96160.76
2019-02-07T21:00:15.612Z,96176.27
2019-02-07T21:03:04.516Z,96177.91
2019-02-07T21:05:52.384Z,96192.91
2019-02-07T21:08:40.658Z,96192.67
2019-02-07T21:11:28.846Z,96209.77
2019-02-07T21:14:16.623Z,96204.19
2019-02-07T21:17:04.939Z,96209.80
2019-02-07T21:19:52.547Z,96213.27
2019-02-07T21:22:40.739Z,96214.88
2019-02-07T21:25:34.586Z,96223.17
2019-02-07T21:28:22.625Z,96229.36
2019-02-07T21:31:10.736Z,96231.49
2019-02-07T21:33:58.730Z,96239.23
2019-02-07T21:36:46.308Z,96242.44
2019-02-07T21:39:45.743Z,96262.56
2019-02-07T21:42:33.611Z,96252.90
2019-02-07T21:45:22.025Z,96251.55
2019-02-07T21:48:11.364Z,96256.91
2019-02-07T21:50:59.084Z,96258.28
2019-02-07T21:53:46.827Z,96255.58
2019-02-07T21:56:34.503Z,96254.25
2019-02-07T21:59:22.806Z,96263.33
2019-02-07T22:02:11.022Z,96272.76
2019-02-07T22:05:01.592Z,96267.91
2019-02-07T22:07:49.786Z,96266.30
2019-02-07T22:10:37.940Z,96263.86
2019-02-07T22:13:25.776Z,96278.05
2019-02-07T22:16:15.144Z,96279.64
2019-02-07T22:19:04.284Z,96285.06
2019-02-07T22:21:52.403Z,96288.82
2019-02-07T22:24:40.616Z,96290.10
2019-02-07T22:27:28.396Z,96289.09
2019-02-07T22:30:19.424Z,96283.44
2019-02-07T22:33:08.304Z,96291.22
2019-02-07T22:35:56.088Z,96284.48
2019-02-07T22:38:44.288Z,96289.84
2019-02-07T22:41:32.570Z,96289.85
2019-02-07T22:44:20.437Z,96295.80
2019-02-07T22:47:08.261Z,96295.80
2019-02-07T22:49:57.502Z,96292.59
2019-02-07T22:52:45.511Z,96284.83
2019-02-07T22:55:33.232Z,96285.34
2019-02-07T22:58:21.103Z,96279.75
2019-02-07T23:01:53.206Z,96284.81
2019-02-07T23:04:41.123Z,96278.92
2019-02-07T23:07:28.717Z,96285.08
2019-02-07T23:10:16.653Z,96280.79
2019-02-07T23:13:04.765Z,96288.58
2019-02-07T23:15:52.666Z,96283.47
2019-02-07T23:18:40.898Z,96284.28
2019-02-07T23:21:28.920Z,96281.33
2019-02-07T23:24:16.896Z,96285.07
2019-02-07T23:27:04.764Z,96284.00
2019-02-07T23:29:52.819Z,96284.25
2019-02-07T23:32:40.739Z,96277.28
2019-02-07T23:35:28.669Z,96277.00
2019-02-07T23:38:16.325Z,96277.27
2019-02-07T23:41:04.589Z,96272.19
2019-02-07T23:43:52.391Z,96274.30
2019-02-07T23:46:40.369Z,96268.67
2019-02-07T23:49:28.120Z,96265.18
2019-02-07T23:52:16.728Z,96277.49
2019-02-07T23:55:05.537Z,96274.30
2019-02-07T23:57:53.450Z,96270.52
